Rechercher aéroport 
image banner adimage banner adimage banner ad
image banner ad

46CN - Crystal

Situé à Llano, United States

ICAO - 46CN, IATA -

Données fournies par Airmate  

Information générale

Coordonnées: N34°29'5" W117°49'35"
Élévation : 3420 feet MSL.
Variation magnétique : 14° East
Voir autres Aéroports à California

Données opérationnelles

Special qualification required
Heure actuelle UTC:
Heure actuelle locale:
Météo à : KPMD - Palmdale Usaf Plant 42 ( 29 km )
METAR: KPMD 292353Z AUTO 23017G25KT 10SM CLR 37/03 A2990 RMK AO2 PK WND 22027/2305 SLP089 T03720033 10394 20344 56015
TAF: KPMD 292352Z 3000/3024 23015G23KT P6SM SKC FM300300 23012KT P6SM SKC FM300800 21007KT P6SM SKC FM301400 VRB03KT P6SM SKC FM302200 23015KT P6SM SKC FM302300 23017G23KT P6SM SKC
Voir NOTAMs / SUP AIP / TFR affectant cet aéroport [VIEW]
Fréquences de communication: [VIEW]

Pistes:

Identifiant RWYQFULongueur (ft)Largeur (ft)SurfaceLDA (ft)
074500250OTHER
254500250OTHER

Coordonnées de l'aéroport

Adresse: Llano United States

Vue satellite de 46CN